Time;durP1;ratioP1;P1;durP2;ratioP2;P2;SDS_P1;SDS_P2;PMS_P1;PMS_P2;Temp;Humidity;BMP_temperature;BMP_pressure;BME280_temperature;BME280_humidity;BME280_pressure;Samples;Min_cycle;Max_cycle;Signal;HPM_P1;HPM_P2
2023/04/19 00:00:38;;;;;;;;;;;24.00;47.70;;;;;;6161069;28;75256;-66
2023/04/19 00:03:39;;;;;;;;;;;24.00;47.90;;;;;;6159239;28;77099;-66
2023/04/19 00:06:40;;;;;;;;;;;24.00;47.80;;;;;;6160734;28;76503;-67
2023/04/19 00:09:41;;;;;;;;;;;24.00;47.80;;;;;;6161902;28;75647;-66
2023/04/19 00:12:41;;;;;;;;;;;24.00;47.90;;;;;;6159780;28;75464;-65
2023/04/19 00:15:42;;;;;;;;;;;24.00;48.00;;;;;;6160310;28;75426;-66
2023/04/19 00:18:42;;;;;;;;;;;24.00;48.10;;;;;;6159291;28;77289;-65
2023/04/19 00:21:43;;;;;;;;;;;24.00;48.10;;;;;;6143465;28;81742;-70
2023/04/19 00:24:43;;;;;;;;;;;24.00;48.10;;;;;;6133973;28;75224;-67
2023/04/19 00:27:44;;;;;;;;;;;23.90;48.20;;;;;;6135846;28;75691;-67
2023/04/19 00:30:45;;;;;;;;;;;24.00;48.00;;;;;;6148052;28;76792;-67
2023/04/19 00:33:45;;;;;;;;;;;24.00;48.10;;;;;;6160986;28;74822;-67
2023/04/19 00:36:46;;;;;;;;;;;24.00;48.20;;;;;;6162035;28;75427;-67
2023/04/19 00:39:46;;;;;;;;;;;24.00;48.20;;;;;;6161185;28;75439;-65
2023/04/19 00:42:47;;;;;;;;;;;24.00;48.20;;;;;;6150464;28;76775;-66
2023/04/19 00:45:47;;;;;;;;;;;24.00;48.30;;;;;;6150216;28;78219;-70
2023/04/19 00:48:48;;;;;;;;;;;24.00;48.20;;;;;;6147139;28;75025;-70
2023/04/19 00:51:49;;;;;;;;;;;24.00;48.20;;;;;;6161189;28;75480;-69
2023/04/19 00:54:49;;;;;;;;;;;23.90;48.20;;;;;;6158265;28;77911;-72
2023/04/19 00:57:50;;;;;;;;;;;23.90;48.20;;;;;;6160234;28;75250;-71
2023/04/19 01:00:51;;;;;;;;;;;23.90;48.20;;;;;;6158025;28;76146;-71
2023/04/19 01:03:53;;;;;;;;;;;23.90;48.20;;;;;;6159446;28;76515;-71
2023/04/19 01:06:54;;;;;;;;;;;23.90;48.30;;;;;;6139178;28;78484;-72
2023/04/19 01:09:55;;;;;;;;;;;23.90;48.20;;;;;;6149143;28;75854;-71
2023/04/19 01:12:55;;;;;;;;;;;23.90;48.20;;;;;;6160929;28;75344;-64
2023/04/19 01:15:56;;;;;;;;;;;23.90;48.40;;;;;;6159654;28;76227;-63
2023/04/19 01:18:56;;;;;;;;;;;23.90;48.30;;;;;;6159095;28;75463;-66
2023/04/19 01:21:57;;;;;;;;;;;23.80;48.20;;;;;;6173791;28;78162;-65
2023/04/19 01:24:58;;;;;;;;;;;23.90;48.40;;;;;;6150171;28;77039;-64
2023/04/19 01:27:58;;;;;;;;;;;23.90;48.50;;;;;;6148988;28;81271;-66
2023/04/19 01:30:59;;;;;;;;;;;23.80;48.40;;;;;;6151101;28;75183;-69
2023/04/19 01:34:00;;;;;;;;;;;23.90;48.30;;;;;;6160793;28;75354;-65
2023/04/19 01:37:00;;;;;;;;;;;23.90;48.30;;;;;;6158139;28;78541;-67
2023/04/19 01:40:01;;;;;;;;;;;23.90;48.20;;;;;;6159302;28;75738;-68
2023/04/19 01:43:02;;;;;;;;;;;23.90;48.30;;;;;;6159916;28;76623;-67
2023/04/19 01:46:03;;;;;;;;;;;23.90;48.30;;;;;;6173799;28;78309;-65
2023/04/19 01:49:03;;;;;;;;;;;23.90;48.20;;;;;;6173133;28;78444;-64
2023/04/19 01:52:04;;;;;;;;;;;23.90;48.30;;;;;;6149451;28;78023;-65
2023/04/19 01:55:04;;;;;;;;;;;23.90;48.40;;;;;;6158865;28;75379;-65
2023/04/19 01:58:06;;;;;;;;;;;23.90;48.40;;;;;;6141390;28;75438;-66
2023/04/19 02:01:08;;;;;;;;;;;23.80;48.40;;;;;;6164517;28;77408;-65
2023/04/19 02:04:09;;;;;;;;;;;23.90;48.50;;;;;;6160325;28;75349;-65
2023/04/19 02:07:10;;;;;;;;;;;23.90;48.60;;;;;;6158374;28;79403;-65
2023/04/19 02:10:10;;;;;;;;;;;23.90;48.60;;;;;;6137491;28;75336;-64
2023/04/19 02:13:11;;;;;;;;;;;23.80;48.50;;;;;;6150255;28;75609;-64
2023/04/19 02:16:11;;;;;;;;;;;23.90;48.60;;;;;;6158303;28;76029;-64
2023/04/19 02:19:12;;;;;;;;;;;23.90;48.40;;;;;;6159281;28;77463;-63
2023/04/19 02:22:13;;;;;;;;;;;23.90;48.30;;;;;;6157584;28;75792;-64
2023/04/19 02:25:15;;;;;;;;;;;23.90;48.40;;;;;;6159073;28;75244;-66
2023/04/19 02:28:15;;;;;;;;;;;23.90;48.20;;;;;;6135698;28;78480;-66
2023/04/19 02:31:16;;;;;;;;;;;23.90;48.40;;;;;;6133659;28;78795;-65
2023/04/19 02:34:17;;;;;;;;;;;23.90;48.30;;;;;;6135059;28;77348;-65
2023/04/19 02:37:17;;;;;;;;;;;23.90;48.70;;;;;;6134050;28;75089;-63
2023/04/19 02:40:18;;;;;;;;;;;23.90;48.50;;;;;;6134179;28;75129;-64
2023/04/19 02:43:18;;;;;;;;;;;23.90;48.40;;;;;;6138724;28;77765;-64
2023/04/19 02:46:19;;;;;;;;;;;23.90;48.60;;;;;;6134436;28;75712;-66
2023/04/19 02:49:20;;;;;;;;;;;23.90;48.50;;;;;;6133929;28;75209;-64
2023/04/19 02:52:20;;;;;;;;;;;23.90;48.60;;;;;;6147339;28;78562;-71
2023/04/19 02:55:21;;;;;;;;;;;23.90;48.50;;;;;;6133342;28;75142;-71
2023/04/19 02:58:27;;;;;;;;;;;23.90;48.80;;;;;;6142494;28;77004;-69
2023/04/19 03:01:33;;;;;;;;;;;23.90;48.70;;;;;;6135539;28;77727;-68
2023/04/19 03:04:37;;;;;;;;;;;23.80;48.60;;;;;;6164981;28;76726;-71
2023/04/19 03:07:38;;;;;;;;;;;23.80;48.80;;;;;;6175425;28;75248;-70
2023/04/19 03:10:38;;;;;;;;;;;23.80;48.50;;;;;;6164899;28;76904;-70
2023/04/19 03:13:39;;;;;;;;;;;23.90;48.70;;;;;;6175567;28;77970;-74
2023/04/19 03:16:40;;;;;;;;;;;23.80;48.50;;;;;;6174467;28;78387;-71
2023/04/19 03:19:41;;;;;;;;;;;23.80;48.60;;;;;;6142077;28;77059;-70
2023/04/19 03:22:41;;;;;;;;;;;23.80;48.70;;;;;;6144869;28;76325;-63
2023/04/19 03:25:43;;;;;;;;;;;23.80;48.70;;;;;;6143941;28;80771;-63
2023/04/19 03:29:07;;;;;;;;;;;23.90;48.70;;;;;;6142560;28;76325;-61
2023/04/19 03:32:12;;;;;;;;;;;24.00;48.80;;;;;;6141803;28;75729;-62
2023/04/19 03:35:13;;;;;;;;;;;24.00;48.70;;;;;;6142974;28;78376;-67
2023/04/19 03:38:14;;;;;;;;;;;24.00;48.60;;;;;;6160988;28;83096;-67
2023/04/19 03:41:15;;;;;;;;;;;24.00;48.90;;;;;;6158699;28;77890;-65
2023/04/19 03:44:15;;;;;;;;;;;24.00;48.80;;;;;;6161252;28;75895;-66
2023/04/19 03:47:18;;;;;;;;;;;24.00;48.80;;;;;;6159018;28;84494;-66
2023/04/19 03:50:22;;;;;;;;;;;24.10;48.80;;;;;;6158284;28;78289;-65
2023/04/19 03:53:25;;;;;;;;;;;24.10;48.70;;;;;;6159394;28;76982;-65
2023/04/19 03:56:26;;;;;;;;;;;24.10;48.70;;;;;;6162371;28;75757;-68
2023/04/19 03:59:27;;;;;;;;;;;24.10;49.60;;;;;;6175952;28;77182;-67
2023/04/19 04:02:29;;;;;;;;;;;24.10;49.20;;;;;;6158366;28;78679;-63
2023/04/19 04:05:29;;;;;;;;;;;24.00;49.50;;;;;;6175716;28;77933;-63
2023/04/19 04:08:30;;;;;;;;;;;24.10;50.00;;;;;;6134547;28;78507;-60
2023/04/19 04:11:30;;;;;;;;;;;24.10;50.10;;;;;;6125359;28;75538;-59
2023/04/19 04:14:31;;;;;;;;;;;24.10;50.60;;;;;;6161100;28;77498;-62
2023/04/19 04:17:34;;;;;;;;;;;24.10;50.70;;;;;;6134063;28;77728;-67
2023/04/19 04:20:36;;;;;;;;;;;24.10;50.70;;;;;;6137133;28;77408;-67
2023/04/19 04:23:41;;;;;;;;;;;24.10;50.80;;;;;;6144606;28;80739;-66
2023/04/19 04:26:48;;;;;;;;;;;24.10;50.70;;;;;;6143590;28;76500;-69
2023/04/19 04:29:58;;;;;;;;;;;24.10;50.60;;;;;;6148421;28;78278;-68
2023/04/19 04:32:59;;;;;;;;;;;24.10;50.50;;;;;;6158433;28;78420;-71
2023/04/19 04:36:00;;;;;;;;;;;24.20;50.90;;;;;;6157757;28;77516;-60
2023/04/19 04:39:05;;;;;;;;;;;24.20;50.80;;;;;;6150669;28;78480;-60
2023/04/19 04:42:08;;;;;;;;;;;24.20;50.70;;;;;;6155006;28;78385;-58
2023/04/19 04:45:09;;;;;;;;;;;24.30;51.00;;;;;;6146698;28;78721;-59
2023/04/19 04:48:11;;;;;;;;;;;24.30;50.80;;;;;;6152625;28;76500;-61
2023/04/19 04:51:12;;;;;;;;;;;24.30;51.00;;;;;;6167116;28;78040;-60
2023/04/19 04:54:15;;;;;;;;;;;24.30;51.00;;;;;;6145507;28;77773;-60
2023/04/19 04:57:17;;;;;;;;;;;24.30;51.40;;;;;;6132688;28;77535;-61
2023/04/19 05:00:17;;;;;;;;;;;24.30;51.00;;;;;;6127317;28;76720;-71
2023/04/19 05:03:31;;;;;;;;;;;24.30;50.60;;;;;;6140473;28;78693;-63
2023/04/19 05:06:39;;;;;;;;;;;24.30;49.80;;;;;;6152440;28;76831;-68
2023/04/19 05:09:40;;;;;;;;;;;24.40;49.20;;;;;;6154004;28;79863;-68
2023/04/19 05:12:41;;;;;;;;;;;24.30;48.80;;;;;;6150812;28;77362;-67
2023/04/19 05:15:42;;;;;;;;;;;24.30;48.40;;;;;;6153647;28;77143;-65
2023/04/19 05:18:43;;;;;;;;;;;24.30;48.00;;;;;;6121608;28;76642;-68
2023/04/19 05:21:44;;;;;;;;;;;24.30;47.60;;;;;;6153050;28;76884;-67
2023/04/19 05:24:44;;;;;;;;;;;24.30;47.40;;;;;;6146822;28;75439;-66
2023/04/19 05:27:45;;;;;;;;;;;24.30;47.10;;;;;;6072730;28;78084;-67
2023/04/19 05:30:46;;;;;;;;;;;24.30;46.90;;;;;;6144153;28;78180;-73
2023/04/19 05:33:47;;;;;;;;;;;24.30;46.60;;;;;;6148807;28;76836;-73
2023/04/19 05:36:48;;;;;;;;;;;24.30;46.80;;;;;;6150150;28;77481;-73
2023/04/19 05:39:49;;;;;;;;;;;24.20;46.80;;;;;;6152262;28;77877;-71
2023/04/19 05:42:49;;;;;;;;;;;24.20;46.80;;;;;;6130816;28;78323;-69
2023/04/19 05:45:50;;;;;;;;;;;24.20;46.90;;;;;;6147685;28;77224;-72
2023/04/19 05:48:51;;;;;;;;;;;24.20;46.90;;;;;;6140736;28;80401;-63
2023/04/19 05:52:14;;;;;;;;;;;24.10;46.90;;;;;;6149132;28;75409;-63
2023/04/19 05:55:20;;;;;;;;;;;24.10;46.90;;;;;;6137855;28;79090;-62
2023/04/19 05:58:22;;;;;;;;;;;24.10;47.10;;;;;;6122869;28;77921;-62
2023/04/19 06:01:22;;;;;;;;;;;24.10;47.10;;;;;;6128654;28;75937;-63
2023/04/19 06:04:24;;;;;;;;;;;24.10;46.90;;;;;;6122619;28;78007;-62
2023/04/19 06:07:25;;;;;;;;;;;24.10;47.00;;;;;;6145101;28;77598;-62
2023/04/19 06:10:25;;;;;;;;;;;24.10;47.10;;;;;;6153127;28;78358;-62
2023/04/19 06:13:26;;;;;;;;;;;24.00;47.00;;;;;;6153452;28;77790;-62
2023/04/19 06:16:27;;;;;;;;;;;24.00;47.00;;;;;;6119395;28;78075;-63
2023/04/19 06:19:27;;;;;;;;;;;24.00;47.00;;;;;;6150955;28;78730;-62
2023/04/19 06:22:28;;;;;;;;;;;24.00;46.90;;;;;;6153750;28;76406;-62
2023/04/19 06:25:28;;;;;;;;;;;24.00;47.00;;;;;;6153557;28;77284;-62
2023/04/19 06:28:29;;;;;;;;;;;23.90;47.50;;;;;;6154416;28;75359;-61
2023/04/19 06:31:29;;;;;;;;;;;24.00;47.30;;;;;;6131285;28;77693;-61
2023/04/19 06:34:30;;;;;;;;;;;24.00;47.10;;;;;;6145898;28;76452;-61
2023/04/19 06:37:30;;;;;;;;;;;23.90;47.00;;;;;;6155729;28;75936;-60
2023/04/19 06:40:31;;;;;;;;;;;24.00;47.00;;;;;;6151533;28;76084;-60
2023/04/19 06:43:31;;;;;;;;;;;23.90;47.00;;;;;;6168899;28;75911;-66
2023/04/19 06:46:32;;;;;;;;;;;23.90;47.00;;;;;;6156487;28;75209;-66
2023/04/19 06:49:33;;;;;;;;;;;23.90;47.00;;;;;;6156684;28;75773;-65
2023/04/19 06:52:33;;;;;;;;;;;24.00;46.90;;;;;;6128811;28;75216;-67
2023/04/19 06:55:34;;;;;;;;;;;24.00;46.90;;;;;;6129136;28;75365;-71
2023/04/19 06:58:34;;;;;;;;;;;23.90;46.90;;;;;;6122160;28;75419;-68
2023/04/19 07:01:35;;;;;;;;;;;23.90;46.90;;;;;;6125662;28;75414;-66
2023/04/19 07:04:35;;;;;;;;;;;23.90;46.80;;;;;;6139696;28;80432;-62
2023/04/19 07:07:36;;;;;;;;;;;23.90;46.70;;;;;;6160445;28;75842;-68
2023/04/19 07:10:37;;;;;;;;;;;23.90;46.60;;;;;;6159584;28;75793;-69
2023/04/19 07:13:38;;;;;;;;;;;23.90;46.70;;;;;;6159819;28;80202;-68
2023/04/19 07:16:38;;;;;;;;;;;23.90;46.70;;;;;;6160342;28;78115;-68
2023/04/19 07:19:39;;;;;;;;;;;23.90;46.80;;;;;;6155876;28;74902;-59
2023/04/19 07:22:39;;;;;;;;;;;23.90;46.90;;;;;;6158329;28;75647;-60
2023/04/19 07:25:40;;;;;;;;;;;23.90;47.80;;;;;;6157530;28;75973;-60
2023/04/19 07:28:40;;;;;;;;;;;23.90;47.90;;;;;;6159595;28;75215;-59
2023/04/19 07:31:41;;;;;;;;;;;23.90;48.00;;;;;;6175900;28;75423;-60
2023/04/19 07:34:42;;;;;;;;;;;23.90;47.90;;;;;;6159043;28;77761;-58
2023/04/19 07:37:42;;;;;;;;;;;23.90;47.80;;;;;;6172283;28;77000;-62
2023/04/19 07:40:43;;;;;;;;;;;23.80;48.50;;;;;;6158573;28;76131;-65
2023/04/19 07:43:44;;;;;;;;;;;23.90;47.90;;;;;;6160101;28;76327;-64
2023/04/19 07:46:44;;;;;;;;;;;23.80;47.50;;;;;;6159077;28;76362;-66
2023/04/19 07:49:45;;;;;;;;;;;23.80;47.60;;;;;;6155212;28;75427;-70
2023/04/19 07:52:45;;;;;;;;;;;23.80;47.40;;;;;;6161201;28;75301;-71
2023/04/19 07:55:46;;;;;;;;;;;23.80;47.20;;;;;;6158717;28;82160;-71
2023/04/19 07:58:46;;;;;;;;;;;23.80;47.10;;;;;;6157043;28;76906;-69
2023/04/19 08:01:47;;;;;;;;;;;23.80;47.20;;;;;;6156183;28;76676;-70
2023/04/19 08:04:48;;;;;;;;;;;23.90;47.20;;;;;;6155315;28;75439;-72
2023/04/19 08:07:48;;;;;;;;;;;23.80;47.10;;;;;;6166644;28;76548;-71
2023/04/19 08:10:49;;;;;;;;;;;23.80;47.10;;;;;;6156241;28;81421;-72
2023/04/19 08:13:50;;;;;;;;;;;23.80;47.00;;;;;;6146890;28;78747;-71
2023/04/19 08:16:50;;;;;;;;;;;23.80;47.00;;;;;;6155530;28;75714;-63
2023/04/19 08:19:51;;;;;;;;;;;23.80;47.00;;;;;;6157537;28;76317;-61
2023/04/19 08:22:51;;;;;;;;;;;23.80;47.00;;;;;;6158722;28;76296;-59
2023/04/19 08:25:52;;;;;;;;;;;23.80;47.00;;;;;;6150373;28;80517;-64
2023/04/19 08:28:52;;;;;;;;;;;23.80;47.10;;;;;;6153095;28;79581;-64
2023/04/19 08:31:53;;;;;;;;;;;23.80;47.00;;;;;;6157133;28;75953;-65
2023/04/19 08:34:53;;;;;;;;;;;23.80;47.00;;;;;;6157592;28;75742;-65
2023/04/19 08:37:54;;;;;;;;;;;23.80;47.00;;;;;;6158561;28;76408;-65
2023/04/19 08:40:55;;;;;;;;;;;23.80;46.90;;;;;;6160770;28;75181;-66
2023/04/19 08:43:55;;;;;;;;;;;23.80;47.00;;;;;;6152879;28;75705;-66
2023/04/19 08:46:56;;;;;;;;;;;23.80;47.00;;;;;;6157420;28;76445;-62
2023/04/19 08:49:56;;;;;;;;;;;23.80;47.00;;;;;;6158197;28;75896;-64
2023/04/19 08:52:57;;;;;;;;;;;23.80;47.00;;;;;;6158739;28;81933;-66
2023/04/19 08:55:57;;;;;;;;;;;23.80;47.00;;;;;;6173909;28;78467;-66
2023/04/19 08:58:58;;;;;;;;;;;23.80;46.90;;;;;;6157651;28;77157;-68
2023/04/19 09:01:58;;;;;;;;;;;23.80;46.90;;;;;;6149525;28;74845;-65
2023/04/19 09:04:59;;;;;;;;;;;23.80;46.90;;;;;;6156216;28;75555;-64
2023/04/19 09:07:59;;;;;;;;;;;23.80;46.90;;;;;;6156069;28;75417;-65
2023/04/19 09:11:00;;;;;;;;;;;23.80;46.80;;;;;;6156542;28;75576;-66
2023/04/19 09:14:01;;;;;;;;;;;23.80;46.90;;;;;;6154177;28;78379;-66
2023/04/19 09:17:01;;;;;;;;;;;23.80;46.70;;;;;;6153354;28;75512;-66
2023/04/19 09:20:03;;;;;;;;;;;23.80;46.70;;;;;;6156709;28;75791;-66
2023/04/19 09:23:04;;;;;;;;;;;23.80;46.70;;;;;;6155126;28;75689;-65
2023/04/19 09:26:05;;;;;;;;;;;23.80;46.70;;;;;;6156829;28;81248;-66
2023/04/19 09:29:06;;;;;;;;;;;23.80;46.60;;;;;;6155404;28;76729;-70
2023/04/19 09:32:07;;;;;;;;;;;23.80;46.50;;;;;;6158231;28;75186;-71
2023/04/19 09:35:07;;;;;;;;;;;23.80;46.60;;;;;;6152397;28;76483;-69
2023/04/19 09:38:08;;;;;;;;;;;23.80;46.60;;;;;;6166707;28;75757;-72
2023/04/19 09:41:09;;;;;;;;;;;23.80;46.50;;;;;;6165470;28;74806;-70
2023/04/19 09:44:14;;;;;;;;;;;23.70;46.50;;;;;;6179336;28;76801;-73
2023/04/19 09:47:15;;;;;;;;;;;23.80;46.50;;;;;;6155816;28;75392;-72
2023/04/19 09:50:15;;;;;;;;;;;23.80;46.50;;;;;;6156611;28;74857;-70
2023/04/19 09:53:16;;;;;;;;;;;23.70;46.40;;;;;;6157010;28;75795;-72
2023/04/19 09:56:16;;;;;;;;;;;23.70;46.40;;;;;;6159636;28;75625;-70
2023/04/19 09:59:16;;;;;;;;;;;23.70;46.30;;;;;;6159308;28;75221;-73
2023/04/19 10:02:17;;;;;;;;;;;23.70;46.30;;;;;;6159594;28;75467;-73
2023/04/19 10:05:17;;;;;;;;;;;23.70;46.20;;;;;;6146088;28;82213;-61
2023/04/19 10:08:18;;;;;;;;;;;23.70;46.20;;;;;;6155380;28;76840;-59
2023/04/19 10:11:18;;;;;;;;;;;23.70;46.20;;;;;;6155382;28;75294;-60
2023/04/19 10:14:19;;;;;;;;;;;23.70;46.20;;;;;;6156549;28;77139;-59
2023/04/19 10:17:19;;;;;;;;;;;23.70;46.20;;;;;;6152561;28;75224;-59
2023/04/19 10:20:20;;;;;;;;;;;23.70;46.10;;;;;;6149315;28;75591;-59
2023/04/19 10:23:21;;;;;;;;;;;23.70;46.00;;;;;;6155919;28;77939;-74
2023/04/19 10:26:21;;;;;;;;;;;23.70;46.00;;;;;;6153822;28;79072;-72
2023/04/19 10:29:21;;;;;;;;;;;23.70;46.00;;;;;;6155031;28;75253;-71
2023/04/19 10:32:23;;;;;;;;;;;23.70;46.10;;;;;;6155181;28;75412;-71
2023/04/19 10:35:24;;;;;;;;;;;23.70;46.00;;;;;;6151251;28;77841;-73
2023/04/19 10:38:25;;;;;;;;;;;23.70;45.90;;;;;;6151767;28;75428;-70
2023/04/19 10:41:26;;;;;;;;;;;23.70;46.00;;;;;;6159599;28;75346;-66
2023/04/19 10:44:27;;;;;;;;;;;23.70;46.00;;;;;;6155378;28;77052;-72
2023/04/19 10:47:27;;;;;;;;;;;23.70;46.00;;;;;;6155745;28;76174;-67
2023/04/19 10:50:28;;;;;;;;;;;23.70;46.00;;;;;;6124737;28;75231;-66
2023/04/19 10:53:28;;;;;;;;;;;23.70;46.10;;;;;;6132762;28;76358;-69
2023/04/19 10:56:29;;;;;;;;;;;23.80;46.20;;;;;;6142995;28;75866;-72
2023/04/19 10:59:29;;;;;;;;;;;23.80;46.20;;;;;;6136516;28;75498;-60
2023/04/19 11:02:32;;;;;;;;;;;23.80;46.20;;;;;;6159790;28;75175;-61
2023/04/19 11:05:32;;;;;;;;;;;23.80;46.20;;;;;;6155038;28;75112;-59
2023/04/19 11:08:33;;;;;;;;;;;23.80;46.30;;;;;;6154032;28;75487;-60
2023/04/19 11:11:34;;;;;;;;;;;23.80;46.50;;;;;;6118279;28;75426;-61
2023/04/19 11:14:35;;;;;;;;;;;23.80;46.70;;;;;;6122546;28;78796;-60
2023/04/19 11:17:37;;;;;;;;;;;23.80;47.00;;;;;;6124052;28;76014;-60
2023/04/19 11:20:37;;;;;;;;;;;23.80;47.20;;;;;;6158030;28;76542;-69
2023/04/19 11:23:38;;;;;;;;;;;23.90;48.40;;;;;;6160536;28;75396;-67
2023/04/19 11:26:39;;;;;;;;;;;23.90;49.90;;;;;;6155121;28;78429;-67
2023/04/19 11:29:39;;;;;;;;;;;24.00;51.10;;;;;;6131107;28;75382;-68
2023/04/19 11:32:40;;;;;;;;;;;24.00;51.30;;;;;;6158278;28;75131;-68
2023/04/19 11:35:40;;;;;;;;;;;23.90;50.20;;;;;;6159525;28;78096;-71
2023/04/19 11:38:41;;;;;;;;;;;23.90;50.60;;;;;;6157548;28;75604;-60
2023/04/19 11:41:41;;;;;;;;;;;24.00;51.10;;;;;;6159539;28;80113;-59
2023/04/19 11:44:42;;;;;;;;;;;24.00;51.30;;;;;;6159287;28;80470;-59
2023/04/19 11:47:42;;;;;;;;;;;24.00;51.40;;;;;;6154139;28;76573;-60
2023/04/19 11:50:43;;;;;;;;;;;24.00;51.50;;;;;;6159275;28;81250;-58
2023/04/19 11:53:43;;;;;;;;;;;24.00;51.20;;;;;;6157717;28;76277;-61
2023/04/19 11:56:44;;;;;;;;;;;24.00;50.90;;;;;;6148101;28;75488;-64
2023/04/19 11:59:44;;;;;;;;;;;24.00;50.70;;;;;;6152237;28;76453;-64
2023/04/19 12:02:45;;;;;;;;;;;24.00;50.50;;;;;;6157316;28;75357;-62
2023/04/19 12:05:45;;;;;;;;;;;24.00;50.20;;;;;;6159695;28;78092;-63
2023/04/19 12:08:46;;;;;;;;;;;24.10;50.10;;;;;;6154916;28;75346;-64
2023/04/19 12:11:49;;;;;;;;;;;24.00;50.60;;;;;;6156566;28;75921;-62
2023/04/19 12:14:50;;;;;;;;;;;24.00;50.80;;;;;;6156286;28;76601;-64
2023/04/19 12:17:51;;;;;;;;;;;24.00;49.80;;;;;;6156039;28;75786;-62
2023/04/19 12:20:52;;;;;;;;;;;24.00;49.30;;;;;;6145379;28;76510;-62
2023/04/19 12:23:52;;;;;;;;;;;24.00;49.00;;;;;;6152412;28;75413;-64
2023/04/19 12:26:54;;;;;;;;;;;24.10;48.90;;;;;;6154657;28;75969;-63
2023/04/19 12:29:54;;;;;;;;;;;24.10;48.70;;;;;;6156834;28;76811;-64
2023/04/19 12:32:55;;;;;;;;;;;24.10;48.50;;;;;;6157423;28;75145;-64
2023/04/19 12:35:55;;;;;;;;;;;24.10;48.30;;;;;;6155901;28;76498;-64
2023/04/19 12:38:56;;;;;;;;;;;24.10;48.30;;;;;;6156767;28;76369;-64
2023/04/19 12:41:56;;;;;;;;;;;24.10;48.10;;;;;;6152445;28;77180;-63
2023/04/19 12:44:57;;;;;;;;;;;24.10;48.00;;;;;;6140015;28;78153;-68
2023/04/19 12:47:57;;;;;;;;;;;24.10;47.90;;;;;;6133205;28;77843;-65
2023/04/19 12:50:58;;;;;;;;;;;24.10;48.30;;;;;;6158595;28;74957;-68
2023/04/19 12:53:58;;;;;;;;;;;24.10;48.50;;;;;;6149280;28;80592;-67
2023/04/19 12:57:00;;;;;;;;;;;24.10;48.70;;;;;;6157457;28;75790;-68
2023/04/19 13:00:00;;;;;;;;;;;24.10;48.80;;;;;;6156655;28;75310;-65
2023/04/19 13:03:02;;;;;;;;;;;24.10;48.60;;;;;;6152990;28;75315;-68
2023/04/19 13:06:02;;;;;;;;;;;24.10;48.30;;;;;;6140732;28;80580;-66
2023/04/19 13:09:03;;;;;;;;;;;24.10;48.40;;;;;;6155597;28;75930;-64
2023/04/19 13:12:03;;;;;;;;;;;24.10;48.40;;;;;;6160095;28;79821;-66
2023/04/19 13:15:04;;;;;;;;;;;24.10;48.30;;;;;;6156330;28;76172;-65
2023/04/19 13:18:04;;;;;;;;;;;24.20;48.30;;;;;;6154602;28;75741;-65
2023/04/19 13:21:05;;;;;;;;;;;24.20;48.20;;;;;;6158227;28;75962;-67
2023/04/19 13:24:06;;;;;;;;;;;24.20;48.10;;;;;;6158512;28;75759;-66
2023/04/19 13:27:06;;;;;;;;;;;24.20;48.10;;;;;;6152765;28;75709;-66
2023/04/19 13:30:07;;;;;;;;;;;24.20;48.00;;;;;;6160211;28;75110;-65
2023/04/19 13:33:07;;;;;;;;;;;24.20;47.90;;;;;;6149748;28;75638;-66
2023/04/19 13:36:08;;;;;;;;;;;24.20;47.90;;;;;;6156957;28;76987;-63
2023/04/19 13:39:08;;;;;;;;;;;24.20;47.80;;;;;;6158601;28;78208;-67
2023/04/19 13:42:09;;;;;;;;;;;24.20;47.70;;;;;;6151734;28;76311;-65
2023/04/19 13:45:09;;;;;;;;;;;24.20;47.80;;;;;;6157208;28;76483;-67
2023/04/19 13:48:10;;;;;;;;;;;24.20;47.80;;;;;;6151973;28;75384;-68
2023/04/19 13:51:11;;;;;;;;;;;24.20;47.80;;;;;;6159486;28;75760;-68
2023/04/19 13:54:11;;;;;;;;;;;24.20;47.90;;;;;;6158120;28;75158;-69
2023/04/19 13:57:12;;;;;;;;;;;24.20;47.90;;;;;;6153100;28;75866;-68
2023/04/19 14:00:12;;;;;;;;;;;24.20;47.80;;;;;;6149249;28;75051;-69
2023/04/19 14:03:13;;;;;;;;;;;24.20;47.70;;;;;;6147461;28;75772;-67
2023/04/19 14:06:13;;;;;;;;;;;24.20;47.70;;;;;;6155594;28;79802;-63
2023/04/19 14:09:14;;;;;;;;;;;24.20;47.60;;;;;;6155518;28;76621;-63
2023/04/19 14:12:15;;;;;;;;;;;24.20;47.60;;;;;;6168544;28;77125;-67
2023/04/19 14:15:15;;;;;;;;;;;24.20;47.60;;;;;;6153389;28;76161;-65
2023/04/19 14:18:16;;;;;;;;;;;24.20;48.10;;;;;;6140135;28;76795;-64
2023/04/19 14:21:16;;;;;;;;;;;24.20;47.90;;;;;;6137203;28;78162;-66
2023/04/19 14:24:17;;;;;;;;;;;24.20;47.90;;;;;;6155378;28;76515;-62
2023/04/19 14:27:18;;;;;;;;;;;24.20;47.80;;;;;;6151568;28;75289;-62
2023/04/19 14:30:18;;;;;;;;;;;24.20;47.90;;;;;;6150472;28;75458;-61
2023/04/19 14:33:19;;;;;;;;;;;24.20;48.10;;;;;;6149513;28;77698;-60
2023/04/19 14:36:19;;;;;;;;;;;24.20;48.00;;;;;;6154289;28;75315;-60
2023/04/19 14:39:20;;;;;;;;;;;24.20;47.90;;;;;;6155042;28;75776;-61
2023/04/19 14:42:20;;;;;;;;;;;24.20;48.00;;;;;;6155811;28;75316;-60
2023/04/19 14:45:21;;;;;;;;;;;24.20;47.90;;;;;;6156140;28;75246;-60
2023/04/19 14:48:21;;;;;;;;;;;24.20;47.90;;;;;;6150234;28;76395;-60
2023/04/19 14:51:22;;;;;;;;;;;24.20;47.90;;;;;;6150145;28;75186;-61
2023/04/19 14:54:22;;;;;;;;;;;24.20;48.30;;;;;;6151806;28;75859;-60
2023/04/19 14:57:24;;;;;;;;;;;24.10;48.30;;;;;;6152300;28;75698;-60
2023/04/19 15:00:25;;;;;;;;;;;24.10;48.40;;;;;;6151513;28;75868;-67
2023/04/19 15:03:25;;;;;;;;;;;24.10;48.40;;;;;;6147557;28;76690;-64
2023/04/19 15:06:26;;;;;;;;;;;24.10;48.30;;;;;;6150683;28;75312;-62
2023/04/19 15:09:26;;;;;;;;;;;24.10;48.20;;;;;;6156101;28;75952;-62
2023/04/19 15:12:27;;;;;;;;;;;24.10;48.30;;;;;;6153254;28;80900;-63
2023/04/19 15:15:27;;;;;;;;;;;24.10;48.20;;;;;;6153095;28;75825;-62
2023/04/19 15:18:28;;;;;;;;;;;24.10;48.20;;;;;;6151883;28;75615;-69
2023/04/19 15:21:28;;;;;;;;;;;24.10;48.40;;;;;;6156474;28;75326;-66
2023/04/19 15:24:29;;;;;;;;;;;24.00;48.00;;;;;;6154737;28;75136;-66
2023/04/19 15:27:30;;;;;;;;;;;24.00;47.90;;;;;;6149336;28;75676;-69
2023/04/19 15:30:30;;;;;;;;;;;24.00;47.80;;;;;;6160266;28;75091;-67
2023/04/19 15:33:31;;;;;;;;;;;24.00;47.80;;;;;;6160365;28;75574;-66
2023/04/19 15:36:31;;;;;;;;;;;24.00;47.90;;;;;;6161294;28;75458;-69
2023/04/19 15:39:32;;;;;;;;;;;24.00;47.90;;;;;;6160401;28;75945;-67
2023/04/19 15:42:32;;;;;;;;;;;24.00;47.80;;;;;;6156456;28;75419;-70
2023/04/19 15:45:33;;;;;;;;;;;24.00;47.80;;;;;;6157388;28;77335;-68
2023/04/19 15:48:33;;;;;;;;;;;24.00;47.90;;;;;;6158780;28;75735;-70
2023/04/19 15:51:34;;;;;;;;;;;24.00;47.90;;;;;;6159563;28;80545;-72
2023/04/19 15:54:36;;;;;;;;;;;23.90;47.90;;;;;;6159495;28;75207;-59
2023/04/19 15:57:37;;;;;;;;;;;23.90;48.00;;;;;;6156097;28;75148;-59
2023/04/19 16:00:37;;;;;;;;;;;23.90;47.90;;;;;;6146773;28;77184;-59
2023/04/19 16:03:38;;;;;;;;;;;23.90;47.70;;;;;;6134530;28;75460;-59
2023/04/19 16:06:38;;;;;;;;;;;24.00;47.80;;;;;;6134312;28;77457;-58
2023/04/19 16:09:39;;;;;;;;;;;24.00;47.80;;;;;;6126777;28;75732;-59
2023/04/19 16:12:39;;;;;;;;;;;23.90;48.00;;;;;;6134107;28;76516;-59
2023/04/19 16:15:40;;;;;;;;;;;24.00;48.10;;;;;;6144860;28;75203;-59
2023/04/19 16:18:40;;;;;;;;;;;24.00;48.20;;;;;;6153594;28;75713;-60
2023/04/19 16:21:41;;;;;;;;;;;24.00;48.40;;;;;;6158160;28;74884;-59
2023/04/19 16:24:41;;;;;;;;;;;24.00;48.40;;;;;;6155799;28;75525;-58
2023/04/19 16:27:42;;;;;;;;;;;24.00;48.70;;;;;;6157947;28;75312;-61
2023/04/19 16:30:42;;;;;;;;;;;24.00;48.40;;;;;;6173511;28;76213;-67
2023/04/19 16:33:43;;;;;;;;;;;24.00;48.50;;;;;;6160518;28;75384;-68
2023/04/19 16:36:43;;;;;;;;;;;24.00;48.40;;;;;;6163033;28;75875;-72
2023/04/19 16:39:44;;;;;;;;;;;24.00;48.50;;;;;;6160623;28;75343;-71
2023/04/19 16:42:44;;;;;;;;;;;24.00;48.60;;;;;;6160245;28;75739;-67
2023/04/19 16:45:45;;;;;;;;;;;24.00;48.70;;;;;;6153906;28;75234;-67
2023/04/19 16:48:45;;;;;;;;;;;24.00;48.80;;;;;;6156077;28;75245;-62
2023/04/19 16:51:46;;;;;;;;;;;24.10;48.80;;;;;;6158029;28;75303;-60
2023/04/19 16:54:46;;;;;;;;;;;24.00;48.50;;;;;;6158941;28;75256;-60
2023/04/19 16:57:47;;;;;;;;;;;24.00;48.30;;;;;;6156853;28;75304;-62
2023/04/19 17:00:47;;;;;;;;;;;24.00;48.30;;;;;;6156927;28;83129;-65
2023/04/19 17:03:48;;;;;;;;;;;24.00;48.30;;;;;;6155266;28;75788;-65
2023/04/19 17:06:50;;;;;;;;;;;24.00;48.30;;;;;;6158210;28;77153;-67
2023/04/19 17:09:51;;;;;;;;;;;24.00;48.30;;;;;;6159736;28;75063;-72
2023/04/19 17:12:54;;;;;;;;;;;24.00;48.50;;;;;;6147088;28;75810;-67
2023/04/19 17:15:54;;;;;;;;;;;24.00;48.70;;;;;;6172374;28;75355;-68
2023/04/19 17:18:55;;;;;;;;;;;24.00;48.80;;;;;;6151498;28;76654;-70
2023/04/19 17:21:57;;;;;;;;;;;24.00;48.80;;;;;;6155137;28;76932;-69
2023/04/19 17:24:58;;;;;;;;;;;24.00;48.70;;;;;;6159116;28;75594;-71
2023/04/19 17:27:58;;;;;;;;;;;24.00;48.70;;;;;;6155572;28;75895;-68
2023/04/19 17:30:59;;;;;;;;;;;24.00;48.80;;;;;;6148416;28;77978;-69